Adair, Illinois
Current Conditions -  °F | °C
As of 7:15 AM on Saturday 25 Oct 2014 (Local Time) from KMQB Reporting Station
Moderate Fog Moderate Fog  
Wind Chill: 11°   Ceiling: 200
Heat Index: 11°   Visibility: 0.25mi
Dew Point: 11°   Wind: 3mph
Humidity: 100%   Direction: 260°W
Pressure: 30.01"   Gusts: NA
Location:  40.42°N, 90.5°W
Report Text: KMQB 251215Z AUTO 26003KT 1/4SM FG OVC002 11/11 A3001 RMK AO2 T01080108
Loading
Personal Weather Stations






























Interactive Weather Map New forecast layout! Learn more

10-Day Weather Forecast

Advertisements
Track Severe Weather on mobile